createdAt,value
2019-05-13T00:01:23.787Z,7.03
2019-05-13T00:03:54.177Z,3.97
2019-05-13T00:06:23.863Z,7.23
2019-05-13T00:08:54.381Z,10.67
2019-05-13T00:11:23.978Z,6.83
2019-05-13T00:13:53.791Z,2.73
2019-05-13T00:16:23.513Z,4.47
2019-05-13T00:18:53.526Z,5.23
2019-05-13T00:21:23.272Z,6.03
2019-05-13T00:23:53.482Z,5.87
2019-05-13T00:26:24.450Z,4.50
2019-05-13T00:28:53.750Z,12.73
2019-05-13T00:31:24.154Z,5.97
2019-05-13T00:33:53.535Z,3.43
2019-05-13T00:36:24.284Z,7.90
2019-05-13T00:38:53.755Z,4.97
2019-05-13T00:41:29.082Z,5.63
2019-05-13T00:43:58.262Z,2.67
2019-05-13T00:46:27.556Z,4.60
2019-05-13T00:48:56.777Z,5.57
2019-05-13T00:51:26.179Z,7.87
2019-05-13T00:54:01.357Z,4.27
2019-05-13T00:56:30.623Z,5.40
2019-05-13T00:58:59.830Z,7.60
2019-05-13T01:01:29.128Z,9.50
2019-05-13T01:03:58.456Z,7.90
2019-05-13T01:06:27.738Z,4.57
2019-05-13T01:08:57.010Z,8.27
2019-05-13T01:11:26.266Z,6.00
2019-05-13T01:13:55.456Z,5.63
2019-05-13T01:16:24.727Z,4.30
2019-05-13T01:18:54.029Z,6.37
2019-05-13T01:21:23.874Z,7.20
2019-05-13T01:23:54.343Z,7.17
2019-05-13T01:26:23.647Z,4.70
2019-05-13T01:28:53.611Z,8.33
2019-05-13T01:31:23.822Z,7.47
2019-05-13T01:33:53.759Z,6.20
2019-05-13T01:36:23.517Z,5.60
2019-05-13T01:38:54.082Z,6.33
2019-05-13T01:41:24.019Z,7.00
2019-05-13T01:43:54.353Z,6.87
2019-05-13T01:46:24.174Z,9.20
2019-05-13T01:48:54.429Z,6.27
2019-05-13T01:51:24.026Z,6.40
2019-05-13T01:53:53.545Z,9.23
2019-05-13T01:56:23.552Z,8.63
2019-05-13T01:58:54.130Z,12.10
2019-05-13T02:01:24.140Z,7.93
2019-05-13T02:03:54.537Z,8.80
2019-05-13T02:06:24.162Z,5.50
2019-05-13T02:08:54.510Z,7.07
2019-05-13T02:11:24.287Z,9.20
2019-05-13T02:13:54.101Z,9.17
2019-05-13T02:16:24.415Z,6.33
2019-05-13T02:18:53.889Z,5.47
2019-05-13T02:21:24.202Z,6.80
2019-05-13T02:23:53.769Z,9.80
2019-05-13T02:26:24.074Z,4.90
2019-05-13T02:28:54.092Z,7.37
2019-05-13T05:13:06.013Z,10.83
2019-05-13T05:16:12.993Z,7.27
2019-05-13T05:19:26.460Z,13.97
2019-05-13T05:22:08.758Z,10.83
2019-05-13T05:25:02.111Z,9.57
2019-05-13T05:27:52.506Z,9.17
2019-05-13T05:31:11.536Z,7.20
2019-05-13T05:34:14.383Z,6.13
2019-05-13T05:37:11.815Z,6.07
2019-05-13T05:39:42.038Z,7.63
2019-05-13T05:42:14.479Z,6.43
2019-05-13T05:44:47.063Z,10.10
2019-05-13T05:47:17.715Z,7.93
2019-05-13T05:49:47.986Z,10.80
2019-05-13T05:52:21.259Z,8.43
2019-05-13T05:54:53.020Z,6.53
2019-05-13T05:57:24.112Z,9.97
2019-05-13T05:59:55.553Z,9.73
2019-05-13T06:02:27.876Z,10.57
2019-05-13T06:05:16.204Z,10.77
2019-05-13T06:07:46.250Z,7.97
2019-05-13T06:10:15.741Z,9.63
2019-05-13T06:12:46.096Z,9.40
2019-05-13T06:15:15.581Z,7.90
2019-05-13T06:17:44.833Z,8.77
2019-05-13T06:20:14.428Z,8.77
2019-05-13T06:22:43.792Z,7.87
2019-05-13T06:25:14.409Z,7.80
2019-05-13T06:27:44.118Z,10.73
2019-05-13T06:30:13.400Z,8.33
2019-05-13T06:32:42.604Z,10.83
2019-05-13T06:35:12.087Z,5.63
2019-05-13T06:37:41.661Z,7.47
2019-05-13T06:40:12.364Z,7.80
2019-05-13T06:42:42.227Z,9.57
2019-05-13T06:45:12.390Z,11.23
2019-05-13T06:47:41.923Z,7.20
2019-05-13T06:50:11.813Z,6.27
2019-05-13T06:52:42.445Z,5.77
2019-05-13T06:55:12.148Z,5.60
2019-05-13T06:58:02.145Z,6.23
2019-05-13T07:00:34.715Z,7.27
2019-05-13T07:03:02.486Z,5.43
2019-05-13T07:05:31.948Z,9.70
2019-05-13T07:08:02.052Z,7.57
2019-05-13T07:10:32.099Z,3.63
2019-05-13T07:13:02.267Z,5.60
2019-05-13T07:15:31.779Z,6.30
2019-05-13T07:18:02.282Z,3.20
2019-05-13T07:20:32.336Z,7.17
2019-05-13T07:23:01.876Z,8.63
2019-05-13T07:25:32.640Z,6.67
2019-05-13T07:28:02.373Z,7.40
2019-05-13T07:30:42.490Z,6.47
2019-05-13T07:33:12.844Z,5.53
2019-05-13T07:35:44.997Z,7.67
2019-05-13T07:38:13.864Z,5.47
2019-05-13T07:40:43.574Z,9.30
2019-05-13T07:43:12.861Z,7.50
2019-05-13T07:45:42.558Z,6.40
2019-05-13T07:48:20.930Z,6.90
2019-05-13T07:50:53.664Z,5.73
2019-05-13T07:53:18.751Z,8.17
2019-05-13T07:55:44.965Z,7.70
2019-05-13T07:58:14.222Z,7.77
2019-05-13T08:00:43.522Z,8.07
2019-05-13T08:03:12.896Z,6.67
2019-05-13T08:05:42.464Z,7.10
2019-05-13T08:08:12.057Z,6.13
2019-05-13T08:10:41.809Z,4.87
2019-05-13T08:13:11.932Z,3.43
2019-05-13T08:15:42.330Z,6.13
2019-05-13T08:18:12.390Z,3.53
2019-05-13T08:20:42.167Z,6.40
2019-05-13T08:23:12.102Z,2.90
2019-05-13T08:25:42.364Z,1.93
2019-05-13T08:28:15.175Z,4.90
2019-05-13T08:30:44.553Z,5.23
2019-05-13T08:33:13.947Z,5.20
2019-05-13T08:35:47.041Z,3.63
2019-05-13T08:38:14.107Z,5.23
2019-05-13T08:40:43.448Z,3.53
2019-05-13T08:43:13.265Z,6.20
2019-05-13T08:45:42.899Z,4.33
2019-05-13T08:48:13.128Z,7.93
2019-05-13T08:50:42.948Z,3.00
2019-05-13T08:53:12.451Z,3.33
2019-05-13T08:55:42.600Z,5.83
2019-05-13T08:58:12.625Z,4.60
2019-05-13T09:00:53.397Z,2.43
2019-05-13T09:03:23.741Z,4.73
2019-05-13T09:05:54.627Z,5.03
2019-05-13T09:08:24.687Z,2.07
2019-05-13T09:10:56.820Z,4.17
2019-05-13T09:13:25.083Z,3.47
2019-05-13T09:15:54.410Z,1.90
2019-05-13T09:18:23.586Z,6.03
2019-05-13T09:20:52.962Z,4.03
2019-05-13T09:23:22.476Z,3.47
2019-05-13T09:25:52.414Z,4.27
2019-05-13T09:28:22.391Z,2.37
2019-05-13T09:30:53.203Z,3.30
2019-05-13T09:33:22.689Z,1.80
2019-05-13T09:35:53.524Z,4.30
2019-05-13T09:38:23.071Z,2.90
2019-05-13T09:40:53.304Z,2.00
2019-05-13T09:43:22.772Z,3.83
2019-05-13T09:45:52.433Z,7.17
2019-05-13T09:48:22.704Z,3.53
2019-05-13T09:50:52.303Z,2.60
2019-05-13T09:53:22.416Z,2.70
2019-05-13T09:55:57.713Z,2.63
2019-05-13T09:58:29.673Z,3.30
2019-05-13T10:00:58.245Z,2.33
2019-05-13T10:03:29.732Z,1.27
2019-05-13T10:05:58.560Z,3.63
2019-05-13T10:08:27.836Z,4.47
2019-05-13T10:11:12.442Z,1.70
2019-05-13T10:13:41.817Z,1.27
2019-05-13T10:16:12.437Z,0.97
2019-05-13T10:18:42.421Z,1.87
2019-05-13T10:21:11.748Z,1.20
2019-05-13T10:23:41.897Z,1.60
2019-05-13T10:26:14.038Z,1.17
2019-05-13T10:28:43.943Z,4.30
2019-05-13T10:31:13.536Z,3.60
2019-05-13T10:33:42.841Z,2.00
2019-05-13T10:36:12.510Z,1.60
2019-05-13T10:38:41.804Z,2.33
2019-05-13T10:41:12.044Z,2.07
2019-05-13T10:43:44.217Z,1.00
2019-05-13T10:46:12.918Z,2.13
2019-05-13T10:48:42.410Z,3.20
2019-05-13T10:51:13.157Z,1.30
2019-05-13T10:53:42.896Z,3.67
2019-05-13T10:56:12.336Z,2.53
2019-05-13T10:58:42.529Z,4.50
2019-05-13T11:01:13.195Z,2.20
2019-05-13T11:03:42.967Z,2.23
2019-05-13T11:06:12.553Z,4.37
2019-05-13T11:08:42.442Z,2.73
2019-05-13T11:11:12.977Z,4.17
2019-05-13T11:13:54.502Z,3.13
2019-05-13T11:16:14.001Z,3.33
2019-05-13T11:18:43.372Z,2.60
2019-05-13T11:21:13.177Z,2.80
2019-05-13T11:23:42.594Z,4.17
2019-05-13T11:26:12.895Z,2.20
2019-05-13T11:28:43.072Z,3.07
2019-05-13T11:31:12.557Z,1.53
2019-05-13T11:33:42.631Z,3.60
2019-05-13T11:36:12.907Z,3.77
2019-05-13T11:38:43.455Z,6.00
2019-05-13T11:41:12.970Z,2.47
2019-05-13T11:43:42.576Z,2.93
2019-05-13T11:46:11.891Z,3.10
2019-05-13T11:48:42.518Z,2.97
2019-05-13T11:51:13.025Z,2.73
2019-05-13T11:53:42.735Z,3.50
2019-05-13T11:56:12.194Z,3.67
2019-05-13T11:58:43.094Z,3.87
2019-05-13T12:01:12.777Z,2.63
2019-05-13T12:03:43.397Z,2.20
2019-05-13T12:06:13.622Z,2.33
2019-05-13T12:08:50.492Z,4.53
2019-05-13T12:11:14.203Z,1.57
2019-05-13T12:13:43.793Z,3.00
2019-05-13T12:16:13.211Z,1.70
2019-05-13T12:18:43.870Z,2.03
2019-05-13T12:21:19.375Z,2.30
2019-05-13T12:23:48.720Z,2.33
2019-05-13T12:26:18.186Z,7.47
2019-05-13T12:28:47.508Z,4.60
2019-05-13T12:31:16.794Z,3.87
2019-05-13T12:33:46.072Z,1.60
2019-05-13T12:36:18.483Z,1.20
2019-05-13T12:38:46.351Z,2.20
2019-05-13T12:41:15.690Z,1.50
2019-05-13T12:43:44.986Z,2.60
2019-05-13T12:46:14.291Z,2.43
2019-05-13T12:48:43.553Z,4.53
2019-05-13T12:51:13.416Z,1.80
2019-05-13T12:53:43.508Z,2.97
2019-05-13T12:56:13.005Z,2.80
2019-05-13T12:58:42.483Z,2.83
2019-05-13T13:01:12.774Z,3.03
2019-05-13T13:03:42.369Z,4.30
2019-05-13T13:06:29.960Z,3.57
2019-05-13T13:08:48.672Z,2.40
2019-05-13T13:11:14.545Z,2.70
2019-05-13T13:13:58.188Z,2.30
2019-05-13T13:16:14.857Z,2.87
2019-05-13T13:18:44.134Z,1.93
2019-05-13T13:21:14.786Z,1.43
2019-05-13T13:23:44.143Z,2.00
2019-05-13T13:28:44.412Z,4.03
2019-05-13T13:31:13.746Z,2.27
2019-05-13T13:33:44.432Z,1.63
2019-05-13T13:36:16.113Z,4.37
2019-05-13T13:38:45.257Z,1.83
2019-05-13T13:41:22.438Z,3.47
2019-05-13T13:43:45.451Z,3.03
2019-05-13T13:46:32.746Z,3.20
2019-05-13T13:48:45.814Z,2.00
2019-05-13T13:51:15.128Z,2.67
2019-05-13T13:53:45.028Z,2.30
2019-05-13T13:56:15.045Z,2.37
2019-05-13T13:58:44.679Z,3.30
2019-05-13T14:01:20.087Z,0.97
2019-05-13T14:03:46.270Z,1.23
2019-05-13T14:07:09.592Z,1.80
2019-05-13T14:07:14.039Z,4.40
2019-05-13T14:08:46.854Z,1.03
2019-05-13T14:11:16.106Z,2.47
2019-05-13T14:13:45.399Z,1.47
2019-05-13T14:16:28.586Z,2.70
2019-05-13T14:18:45.666Z,3.13
2019-05-13T14:21:15.075Z,1.27
2019-05-13T14:23:44.392Z,1.13
2019-05-13T14:26:13.778Z,2.37
2019-05-13T14:28:43.190Z,1.63
2019-05-13T14:31:13.321Z,2.40
2019-05-13T14:33:42.899Z,1.27
2019-05-13T14:36:12.454Z,2.30
2019-05-13T14:38:41.780Z,2.43
2019-05-13T14:41:12.378Z,1.97
2019-05-13T14:43:41.931Z,1.80
2019-05-13T14:46:12.642Z,4.03
2019-05-13T14:48:43.290Z,2.57
2019-05-13T14:51:32.451Z,3.83
2019-05-13T14:54:02.760Z,1.83
2019-05-13T14:56:32.488Z,2.33
2019-05-13T14:59:02.614Z,4.97
2019-05-13T15:01:32.215Z,3.03
2019-05-13T15:04:02.833Z,1.30
2019-05-13T15:06:32.829Z,2.10
2019-05-13T15:09:04.171Z,2.73
2019-05-13T15:11:33.522Z,2.40
2019-05-13T15:14:03.103Z,3.73
2019-05-13T15:16:32.453Z,3.30
2019-05-13T15:19:01.940Z,3.83
2019-05-13T15:21:32.198Z,2.37
2019-05-13T15:24:02.307Z,2.17
2019-05-13T15:26:31.844Z,2.30
2019-05-13T15:29:22.313Z,6.10
2019-05-13T15:31:51.615Z,2.37
2019-05-13T15:34:21.007Z,2.73
2019-05-13T15:36:50.962Z,4.23
2019-05-13T15:39:20.945Z,3.50
2019-05-13T15:41:52.435Z,3.03
2019-05-13T15:44:22.036Z,2.00
2019-05-13T15:46:52.336Z,2.43
2019-05-13T15:49:22.161Z,4.17
2019-05-13T15:51:51.545Z,4.07
2019-05-13T15:54:22.095Z,3.03
2019-05-13T15:56:53.446Z,3.77
2019-05-13T15:59:22.907Z,3.30
2019-05-13T16:01:52.595Z,3.60
2019-05-13T16:04:22.148Z,4.50
2019-05-13T16:06:52.166Z,2.70
2019-05-13T16:09:21.643Z,4.63
2019-05-13T16:11:52.156Z,4.30
2019-05-13T16:14:22.041Z,2.87
2019-05-13T16:16:51.758Z,1.33
2019-05-13T16:19:22.038Z,3.57
2019-05-13T16:21:51.870Z,2.23
2019-05-13T16:24:21.582Z,2.43
2019-05-13T16:26:52.159Z,4.90
2019-05-13T16:29:22.416Z,2.50
2019-05-13T16:31:52.007Z,4.43
2019-05-13T16:34:22.310Z,4.43
2019-05-13T16:36:52.982Z,3.67
2019-05-13T16:39:22.405Z,5.37
2019-05-13T16:41:57.354Z,4.87
2019-05-13T16:44:26.606Z,6.10
2019-05-13T16:46:55.905Z,2.73
2019-05-13T16:49:25.205Z,3.03
2019-05-13T16:51:54.573Z,1.90
2019-05-13T16:54:23.853Z,5.13
2019-05-13T16:56:53.640Z,4.50
2019-05-13T16:59:22.897Z,2.67
2019-05-13T17:01:52.101Z,2.60
2019-05-13T17:04:21.586Z,3.13
2019-05-13T17:06:53.005Z,3.33
2019-05-13T17:09:21.780Z,3.23
2019-05-13T17:11:51.925Z,3.53
2019-05-13T17:14:21.661Z,2.77
2019-05-13T17:16:51.832Z,3.07
2019-05-13T17:19:21.373Z,2.10
2019-05-13T17:21:52.027Z,3.17
2019-05-13T17:24:22.605Z,2.27
2019-05-13T17:26:52.325Z,1.73
2019-05-13T17:29:21.771Z,2.27
2019-05-13T17:31:51.473Z,3.67
2019-05-13T17:34:21.251Z,3.23
2019-05-13T17:36:51.954Z,4.37
2019-05-13T17:39:22.000Z,3.13
2019-05-13T17:41:52.239Z,3.73
2019-05-13T17:44:21.939Z,3.13
2019-05-13T17:46:52.178Z,2.97
2019-05-13T17:49:22.227Z,2.23
2019-05-13T17:51:51.764Z,3.13
2019-05-13T17:54:22.195Z,1.73
2019-05-13T17:56:51.936Z,3.87
2019-05-13T17:59:21.821Z,1.50
2019-05-13T18:01:51.992Z,2.37
2019-05-13T18:04:22.644Z,3.57
2019-05-13T18:06:52.388Z,3.30
2019-05-13T18:09:22.366Z,4.53
2019-05-13T18:11:52.873Z,1.40
2019-05-13T18:14:28.797Z,2.47
2019-05-13T18:16:58.227Z,1.40
2019-05-13T18:19:27.516Z,4.53
2019-05-13T18:21:56.834Z,1.57
2019-05-13T18:24:26.356Z,1.40
2019-05-13T18:26:55.710Z,2.77
2019-05-13T18:29:25.230Z,2.70
2019-05-13T18:31:54.520Z,1.20
2019-05-13T18:34:23.889Z,2.97
2019-05-13T18:36:53.078Z,2.33
2019-05-13T18:39:22.575Z,1.30
2019-05-13T18:41:52.006Z,3.03
2019-05-13T18:44:21.350Z,3.53
2019-05-13T18:46:52.344Z,3.70
2019-05-13T18:49:21.666Z,3.67
2019-05-13T18:51:50.966Z,4.33
2019-05-13T18:54:20.340Z,2.57
2019-05-13T18:56:52.051Z,2.53
2019-05-13T18:59:21.461Z,1.20
2019-05-13T19:01:52.900Z,2.50
2019-05-13T19:04:21.973Z,3.43
2019-05-13T19:06:51.770Z,3.23
2019-05-13T19:09:21.752Z,4.70
2019-05-13T19:11:51.628Z,1.60
2019-05-13T19:14:21.304Z,2.23
2019-05-13T19:16:50.734Z,1.37
2019-05-13T19:19:22.827Z,2.93
2019-05-13T19:21:51.236Z,2.43
2019-05-13T19:24:20.615Z,1.80
2019-05-13T19:26:52.001Z,3.30
2019-05-13T19:29:21.896Z,2.20
2019-05-13T19:31:51.349Z,1.77
2019-05-13T19:34:21.542Z,2.60
2019-05-13T19:36:51.581Z,3.83
2019-05-13T19:39:21.632Z,2.23
2019-05-13T19:41:51.011Z,3.40
2019-05-13T19:44:22.054Z,1.27
2019-05-13T19:46:52.315Z,4.17
2019-05-13T19:49:32.533Z,2.03
2019-05-13T19:51:52.842Z,1.50
2019-05-13T19:54:22.344Z,2.67
2019-05-13T19:56:52.134Z,3.70
2019-05-13T19:59:21.655Z,3.07
2019-05-13T20:01:51.609Z,3.00
2019-05-13T20:04:21.823Z,2.73
2019-05-13T20:06:51.912Z,2.50
2019-05-13T20:09:21.626Z,2.80
2019-05-13T20:11:55.426Z,3.33
2019-05-13T20:14:22.477Z,2.10
2019-05-13T20:16:52.449Z,1.70
2019-05-13T20:19:23.147Z,3.10
2019-05-13T20:21:52.371Z,4.20
2019-05-13T20:24:22.043Z,4.90
2019-05-13T20:26:52.207Z,3.00
2019-05-13T20:29:21.703Z,4.33
2019-05-13T20:31:51.835Z,3.27
2019-05-13T20:34:23.726Z,4.73
2019-05-13T20:36:53.085Z,3.00
2019-05-13T20:39:22.584Z,4.60
2019-05-13T20:41:55.666Z,2.60
2019-05-13T20:44:22.999Z,4.00
2019-05-13T20:46:52.310Z,3.87
2019-05-13T20:49:21.883Z,2.43
2019-05-13T20:51:51.714Z,2.13
2019-05-13T20:54:21.986Z,2.00
2019-05-13T20:56:51.842Z,3.93
2019-05-13T20:59:21.704Z,2.70
2019-05-13T21:01:51.285Z,4.73
2019-05-13T21:04:21.533Z,3.83
2019-05-13T21:06:51.545Z,2.20
2019-05-13T21:09:21.118Z,2.30
2019-05-13T21:11:51.556Z,2.40
2019-05-13T21:14:21.664Z,3.10
2019-05-13T21:16:53.439Z,2.50
2019-05-13T21:19:22.144Z,4.90
2019-05-13T21:21:51.422Z,3.00
2019-05-13T21:24:21.357Z,1.67
2019-05-13T21:26:51.250Z,3.97
2019-05-13T21:29:21.749Z,1.93
2019-05-13T21:31:52.927Z,2.93
2019-05-13T21:34:22.028Z,3.47
2019-05-13T21:36:51.811Z,1.50
2019-05-13T21:39:21.518Z,3.33
2019-05-13T21:41:51.949Z,5.47
2019-05-13T21:44:21.419Z,4.37
2019-05-13T21:46:51.538Z,3.27
2019-05-13T21:49:21.449Z,3.83
2019-05-13T21:51:52.098Z,2.63
2019-05-13T21:54:21.497Z,2.80
2019-05-13T21:56:51.556Z,1.43
2019-05-13T21:59:23.043Z,4.20
2019-05-13T22:01:52.300Z,1.53
2019-05-13T22:04:21.625Z,1.63
2019-05-13T22:06:50.945Z,2.73
2019-05-13T22:09:22.091Z,2.40
2019-05-13T22:11:51.367Z,2.50
2019-05-13T22:14:20.757Z,2.70
2019-05-13T22:16:51.756Z,1.70
2019-05-13T22:19:22.288Z,3.53
2019-05-13T22:21:51.766Z,3.20
2019-05-13T22:24:22.095Z,1.77
2019-05-13T22:26:51.434Z,1.23
2019-05-13T22:29:22.976Z,1.80
2019-05-13T22:31:51.662Z,2.20
2019-05-13T22:34:21.242Z,1.10
2019-05-13T22:36:52.522Z,0.70
2019-05-13T22:39:22.522Z,3.70
2019-05-13T22:41:52.371Z,3.93
2019-05-13T22:44:21.926Z,2.87
2019-05-13T22:46:51.724Z,4.23
2019-05-13T22:49:22.098Z,2.37
2019-05-13T22:51:51.660Z,3.90
2019-05-13T22:54:21.249Z,2.40
2019-05-13T22:56:52.241Z,3.63
2019-05-13T22:59:21.690Z,4.20
2019-05-13T23:01:52.323Z,4.30
2019-05-13T23:04:22.326Z,4.03
2019-05-13T23:06:52.035Z,2.73
2019-05-13T23:09:21.705Z,3.57
2019-05-13T23:11:51.545Z,3.17
2019-05-13T23:14:22.010Z,5.23
2019-05-13T23:16:51.380Z,4.30
2019-05-13T23:19:21.672Z,3.90
2019-05-13T23:21:51.264Z,2.70
2019-05-13T23:24:21.891Z,3.40
2019-05-13T23:26:51.658Z,5.03
2019-05-13T23:29:21.406Z,6.43
2019-05-13T23:31:52.025Z,5.13
2019-05-13T23:34:22.285Z,4.03
2019-05-13T23:36:51.731Z,4.10
2019-05-13T23:39:21.651Z,3.20
2019-05-13T23:41:52.149Z,4.40
2019-05-13T23:44:27.599Z,6.20
2019-05-13T23:46:52.571Z,5.93
2019-05-13T23:49:21.813Z,6.33
2019-05-13T23:51:52.081Z,4.43
2019-05-13T23:54:21.571Z,7.03
2019-05-13T23:56:50.962Z,4.37
2019-05-13T23:59:21.910Z,5.20
